Terminal Aerodrome Forecast
Issued by NWS

Home | Current Version | Previous Version | Text Only | Print | Product List | Glossary On
Versions: 1 2 3 4 5 6 7 8 9 10 11 12 13 14
000
FTUS46 KPDT 301100
TAFBDN
TAF
KBDN 301120Z 3012/3112 21004KT P6SM FEW150 SCT250
     FM302100 34011KT P6SM VCTS SCT120CB BKN200
     FM310500 30006KT P6SM SCT120 BKN200=

USA.gov is the U.S. government's official web portal to all federal, state and local government web resources and services.